createdAt,value
2017-06-08T00:00:14.496Z,0
2017-06-08T00:01:14.822Z,0
2017-06-08T00:02:14.836Z,0
2017-06-08T00:03:14.792Z,0
2017-06-08T00:04:14.609Z,0
2017-06-08T00:05:14.481Z,0
2017-06-08T00:06:14.479Z,0
2017-06-08T00:07:15.083Z,0
2017-06-08T00:08:14.779Z,0
2017-06-08T00:09:15.078Z,0
2017-06-08T00:10:15.059Z,0
2017-06-08T00:11:15.391Z,0
2017-06-08T00:12:14.738Z,0
2017-06-08T00:13:14.764Z,0
2017-06-08T00:14:15.370Z,0
2017-06-08T00:15:15.025Z,0
2017-06-08T00:16:14.711Z,0
2017-06-08T00:17:15.005Z,0
2017-06-08T00:18:14.996Z,0
2017-06-08T00:19:14.989Z,0
2017-06-08T00:20:14.981Z,0
2017-06-08T00:21:15.143Z,0
2017-06-08T00:22:14.648Z,0
2017-06-08T00:23:14.951Z,0
2017-06-08T00:24:15.285Z,0
2017-06-08T00:25:14.631Z,0
2017-06-08T00:26:14.966Z,0
2017-06-08T00:27:14.933Z,0
2017-06-08T00:28:14.943Z,0
2017-06-08T00:29:14.942Z,0
2017-06-08T00:30:14.909Z,0
2017-06-08T00:31:14.908Z,0
2017-06-08T00:32:14.888Z,0
2017-06-08T00:33:15.200Z,0
2017-06-08T00:34:14.560Z,0
2017-06-08T00:35:14.860Z,0
2017-06-08T00:36:13.884Z,0
2017-06-08T00:37:14.523Z,0
2017-06-08T00:38:14.915Z,0
2017-06-08T00:39:14.840Z,0
2017-06-08T00:40:14.829Z,0
2017-06-08T00:41:14.486Z,0
2017-06-08T00:42:14.152Z,0
2017-06-08T00:43:14.822Z,0
2017-06-08T00:44:14.136Z,0
2017-06-08T00:45:14.147Z,0
2017-06-08T00:46:14.458Z,0
2017-06-08T00:47:14.790Z,0
2017-06-08T00:48:14.745Z,0
2017-06-08T00:49:14.414Z,0
2017-06-08T00:50:15.052Z,0
2017-06-08T00:51:14.718Z,0
2017-06-08T00:52:14.737Z,0
2017-06-08T00:53:15.028Z,0
2017-06-08T00:54:14.707Z,0
2017-06-08T00:55:14.400Z,0
2017-06-08T00:56:14.396Z,0
2017-06-08T00:57:14.703Z,0
2017-06-08T00:58:14.351Z,0
2017-06-08T00:59:14.673Z,0
2017-06-08T01:00:14.647Z,0
2017-06-08T01:01:14.636Z,0
2017-06-08T01:02:14.650Z,0
2017-06-08T01:03:14.955Z,0
2017-06-08T01:04:14.655Z,0
2017-06-08T01:05:14.288Z,0
2017-06-08T01:06:14.633Z,0
2017-06-08T01:07:14.284Z,0
2017-06-08T01:08:14.887Z,0
2017-06-08T01:09:14.603Z,0
2017-06-08T01:10:14.554Z,0
2017-06-08T01:11:14.411Z,0
2017-06-08T01:12:13.894Z,0
2017-06-08T01:13:14.855Z,0
2017-06-08T01:14:14.553Z,0
2017-06-08T01:15:13.929Z,0
2017-06-08T01:16:14.854Z,0
2017-06-08T01:17:14.501Z,0
2017-06-08T01:18:14.170Z,0
2017-06-08T01:19:14.475Z,0
2017-06-08T01:20:14.477Z,0
2017-06-08T01:21:14.135Z,0
2017-06-08T01:22:14.923Z,0
2017-06-08T01:23:14.151Z,0
2017-06-08T01:24:14.139Z,0
2017-06-08T01:25:14.425Z,0
2017-06-08T01:26:14.438Z,0
2017-06-08T01:27:14.088Z,0
2017-06-08T01:28:13.762Z,0
2017-06-08T01:29:14.712Z,0
2017-06-08T01:30:14.404Z,0
2017-06-08T01:31:14.386Z,0
2017-06-08T01:32:14.060Z,0
2017-06-08T01:33:14.053Z,0
2017-06-08T01:34:14.018Z,0
2017-06-08T01:35:14.336Z,0
2017-06-08T01:36:14.330Z,0
2017-06-08T01:37:13.693Z,0
2017-06-08T01:38:14.358Z,0
2017-06-08T01:39:14.297Z,0
2017-06-08T01:40:13.984Z,0
2017-06-08T01:41:14.387Z,0
2017-06-08T01:42:13.649Z,0
2017-06-08T01:43:14.587Z,0
2017-06-08T01:44:13.941Z,0
2017-06-08T01:45:13.940Z,0
2017-06-08T01:46:14.579Z,0
2017-06-08T01:47:14.251Z,0
2017-06-08T01:48:14.570Z,0
2017-06-08T01:49:14.560Z,0
2017-06-08T01:50:13.619Z,0
2017-06-08T01:51:13.706Z,0
2017-06-08T01:52:13.870Z,0
2017-06-08T01:53:14.187Z,0
2017-06-08T01:54:13.560Z,0
2017-06-08T01:55:14.482Z,0
2017-06-08T01:56:14.620Z,0
2017-06-08T01:57:14.480Z,0
2017-06-08T01:58:13.495Z,0
2017-06-08T01:59:13.166Z,0
2017-06-08T02:00:13.493Z,0
2017-06-08T02:01:14.439Z,0
2017-06-08T02:02:13.771Z,0
2017-06-08T02:03:14.105Z,0
2017-06-08T02:04:14.081Z,0
2017-06-08T02:05:13.750Z,0
2017-06-08T02:06:13.734Z,0
2017-06-08T02:07:13.562Z,0
2017-06-08T02:08:14.107Z,0
2017-06-08T02:09:13.769Z,0
2017-06-08T02:10:14.357Z,0
2017-06-08T02:11:14.022Z,0
2017-06-08T02:12:14.006Z,0
2017-06-08T02:13:13.420Z,0
2017-06-08T02:14:13.999Z,0
2017-06-08T02:15:13.994Z,0
2017-06-08T02:16:13.999Z,0
2017-06-08T02:17:14.114Z,0
2017-06-08T02:18:14.286Z,0
2017-06-08T02:19:14.298Z,0
2017-06-08T02:20:13.627Z,0
2017-06-08T02:21:13.915Z,0
2017-06-08T02:22:13.915Z,0
2017-06-08T02:23:13.901Z,0
2017-06-08T02:24:13.894Z,0
2017-06-08T02:25:14.226Z,0
2017-06-08T02:26:14.214Z,0
2017-06-08T02:27:14.212Z,0
2017-06-08T02:28:14.187Z,0
2017-06-08T02:29:14.216Z,0
2017-06-08T02:30:13.526Z,0
2017-06-08T02:31:13.840Z,0
2017-06-08T02:32:13.513Z,0
2017-06-08T02:33:13.188Z,0
2017-06-08T02:34:13.800Z,0
2017-06-08T02:35:14.133Z,0
2017-06-08T02:36:13.800Z,0
2017-06-08T02:37:13.802Z,0
2017-06-08T02:38:13.471Z,0
2017-06-08T02:39:14.096Z,0
2017-06-08T02:40:14.101Z,0
2017-06-08T02:41:13.744Z,0
2017-06-08T02:42:13.088Z,0
2017-06-08T02:43:14.067Z,0
2017-06-08T02:44:13.425Z,0
2017-06-08T02:45:13.716Z,0
2017-06-08T02:46:14.019Z,0
2017-06-08T02:47:14.013Z,0
2017-06-08T02:48:13.368Z,0
2017-06-08T02:49:13.688Z,0
2017-06-08T02:50:13.657Z,0
2017-06-08T02:51:12.997Z,5
2017-06-08T02:52:13.004Z,5
2017-06-08T02:53:13.312Z,5
2017-06-08T02:54:13.956Z,5
2017-06-08T02:55:13.006Z,5
2017-06-08T02:56:13.619Z,5
2017-06-08T02:57:13.952Z,5
2017-06-08T02:58:13.596Z,5
2017-06-08T02:59:13.593Z,5
2017-06-08T03:00:13.255Z,5
2017-06-08T03:01:13.934Z,5
2017-06-08T03:02:13.617Z,5
2017-06-08T03:03:13.055Z,5
2017-06-08T03:04:13.223Z,5
2017-06-08T03:05:13.868Z,5
2017-06-08T03:06:12.878Z,5
2017-06-08T03:07:13.501Z,10
2017-06-08T03:08:13.517Z,10
2017-06-08T03:09:13.510Z,10
2017-06-08T03:10:13.163Z,10
2017-06-08T03:11:13.182Z,10
2017-06-08T03:12:13.473Z,10
2017-06-08T03:13:12.803Z,10
2017-06-08T03:14:13.444Z,10
2017-06-08T03:15:13.455Z,15
2017-06-08T03:16:13.118Z,15
2017-06-08T03:17:13.089Z,15
2017-06-08T03:18:13.399Z,15
2017-06-08T03:19:13.107Z,15
2017-06-08T03:20:13.876Z,15
2017-06-08T03:21:13.109Z,15
2017-06-08T03:22:12.727Z,20
2017-06-08T03:23:13.704Z,20
2017-06-08T03:24:12.727Z,20
2017-06-08T03:25:13.393Z,20
2017-06-08T03:26:13.034Z,20
2017-06-08T03:27:13.349Z,20
2017-06-08T03:28:13.003Z,20
2017-06-08T03:29:13.028Z,20
2017-06-08T03:30:13.622Z,25
2017-06-08T03:31:12.963Z,25
2017-06-08T03:32:13.278Z,25
2017-06-08T03:33:12.945Z,25
2017-06-08T03:34:12.986Z,25
2017-06-08T03:35:12.634Z,25
2017-06-08T03:36:12.963Z,25
2017-06-08T03:37:12.910Z,30
2017-06-08T03:38:12.901Z,30
2017-06-08T03:39:13.556Z,30
2017-06-08T03:40:13.206Z,30
2017-06-08T03:41:13.523Z,35
2017-06-08T03:42:13.513Z,35
2017-06-08T03:43:13.175Z,35
2017-06-08T03:44:12.998Z,35
2017-06-08T03:45:13.190Z,40
2017-06-08T03:46:12.834Z,40
2017-06-08T03:47:12.830Z,40
2017-06-08T03:48:13.144Z,45
2017-06-08T03:49:12.485Z,45
2017-06-08T03:50:13.116Z,50
2017-06-08T03:51:12.482Z,50
2017-06-08T03:52:12.770Z,50
2017-06-08T03:53:13.448Z,50
2017-06-08T03:54:12.757Z,50
2017-06-08T03:55:12.438Z,50
2017-06-08T03:56:13.392Z,50
2017-06-08T03:57:12.733Z,55
2017-06-08T03:58:13.058Z,55
2017-06-08T03:59:12.731Z,55
2017-06-08T04:00:12.383Z,60
2017-06-08T04:01:13.024Z,60
2017-06-08T04:02:13.011Z,65
2017-06-08T04:03:13.029Z,65
2017-06-08T04:04:12.669Z,70
2017-06-08T04:05:13.327Z,70
2017-06-08T04:06:12.688Z,75
2017-06-08T04:07:13.316Z,80
2017-06-08T04:08:12.963Z,85
2017-06-08T04:09:13.279Z,90
2017-06-08T04:10:13.408Z,90
2017-06-08T04:11:12.931Z,95
2017-06-08T04:12:13.237Z,100
2017-06-08T04:13:12.919Z,100
2017-06-08T04:14:12.921Z,105
2017-06-08T04:15:12.249Z,105
2017-06-08T04:16:12.578Z,110
2017-06-08T04:17:12.259Z,110
2017-06-08T04:18:12.868Z,115
2017-06-08T04:19:12.576Z,120
2017-06-08T04:20:12.576Z,130
2017-06-08T04:21:12.520Z,135
2017-06-08T04:22:12.834Z,145
2017-06-08T04:23:13.179Z,150
2017-06-08T04:24:12.544Z,150
2017-06-08T04:25:12.501Z,155
2017-06-08T04:26:12.166Z,160
2017-06-08T04:27:13.267Z,160
2017-06-08T04:28:12.845Z,165
2017-06-08T04:29:12.451Z,170
2017-06-08T04:30:12.804Z,175
2017-06-08T04:31:12.445Z,175
2017-06-08T04:32:13.066Z,180
2017-06-08T04:33:12.433Z,180
2017-06-08T04:34:12.086Z,180
2017-06-08T04:35:12.782Z,180
2017-06-08T04:36:12.720Z,185
2017-06-08T04:37:13.058Z,185
2017-06-08T04:38:12.722Z,185
2017-06-08T04:39:13.013Z,185
2017-06-08T04:40:12.362Z,180
2017-06-08T04:41:12.031Z,185
2017-06-08T04:42:12.672Z,185
2017-06-08T04:43:12.484Z,190
2017-06-08T04:44:12.655Z,195
2017-06-08T04:45:11.999Z,195
2017-06-08T04:46:12.629Z,195
2017-06-08T04:47:12.635Z,200
2017-06-08T04:48:11.981Z,200
2017-06-08T04:49:12.634Z,205
2017-06-08T04:50:12.314Z,210
2017-06-08T04:51:12.275Z,215
2017-06-08T04:52:12.926Z,215
2017-06-08T04:53:11.949Z,220
2017-06-08T04:54:12.893Z,215
2017-06-08T04:55:11.930Z,215
2017-06-08T04:56:12.240Z,225
2017-06-08T04:57:11.930Z,230
2017-06-08T04:58:12.892Z,240
2017-06-08T04:59:12.538Z,245
2017-06-08T05:00:12.546Z,265
2017-06-08T05:01:11.903Z,265
2017-06-08T05:02:12.200Z,270
2017-06-08T05:03:12.508Z,280
2017-06-08T05:04:11.878Z,285
2017-06-08T05:05:11.858Z,290
2017-06-08T05:06:12.550Z,295
2017-06-08T05:07:12.187Z,295
2017-06-08T05:08:11.843Z,295
2017-06-08T05:09:12.475Z,295
2017-06-08T05:10:12.483Z,295
2017-06-08T05:11:12.153Z,290
2017-06-08T05:12:12.147Z,290
2017-06-08T05:13:12.122Z,290
2017-06-08T05:14:12.122Z,275
2017-06-08T05:15:12.111Z,270
2017-06-08T05:16:12.895Z,265
2017-06-08T05:17:12.464Z,265
2017-06-08T05:18:12.756Z,265
2017-06-08T05:19:12.744Z,270
2017-06-08T05:20:12.405Z,270
2017-06-08T05:21:12.458Z,270
2017-06-08T05:22:12.464Z,270
2017-06-08T05:23:12.059Z,270
2017-06-08T05:24:12.057Z,270
2017-06-08T05:25:12.724Z,270
2017-06-08T05:26:12.079Z,275
2017-06-08T05:27:12.830Z,285
2017-06-08T05:28:12.673Z,295
2017-06-08T05:29:12.024Z,300
2017-06-08T05:30:12.376Z,310
2017-06-08T05:31:12.657Z,315
2017-06-08T05:32:12.038Z,315
2017-06-08T05:33:12.646Z,315
2017-06-08T05:34:11.700Z,315
2017-06-08T05:35:12.641Z,315
2017-06-08T05:36:12.629Z,315
2017-06-08T05:37:12.325Z,315
2017-06-08T05:38:12.779Z,315
2017-06-08T05:39:11.976Z,320
2017-06-08T05:40:11.654Z,320
2017-06-08T05:41:12.291Z,325
2017-06-08T05:42:11.954Z,330
2017-06-08T05:43:12.316Z,335
2017-06-08T05:44:11.945Z,345
2017-06-08T05:45:11.629Z,355
2017-06-08T05:46:12.253Z,365
2017-06-08T05:47:11.939Z,375
2017-06-08T05:48:12.272Z,385
2017-06-08T05:49:12.272Z,390
2017-06-08T05:50:12.557Z,400
2017-06-08T05:51:11.582Z,395
2017-06-08T05:52:12.569Z,395
2017-06-08T05:53:11.897Z,395
2017-06-08T05:54:12.215Z,400
2017-06-08T05:55:12.034Z,400
2017-06-08T05:56:11.898Z,410
2017-06-08T05:57:12.202Z,415
2017-06-08T05:58:11.870Z,425
2017-06-08T05:59:12.205Z,430
2017-06-08T06:00:12.233Z,430
2017-06-08T06:01:11.536Z,435
2017-06-08T06:02:12.513Z,435
2017-06-08T06:03:12.173Z,440
2017-06-08T06:04:11.901Z,435
2017-06-08T06:05:12.178Z,435
2017-06-08T06:06:12.317Z,435
2017-06-08T06:07:11.853Z,445
2017-06-08T06:08:12.183Z,445
2017-06-08T06:09:11.823Z,450
2017-06-08T06:10:11.503Z,450
2017-06-08T06:11:12.453Z,450
2017-06-08T06:12:12.135Z,455
2017-06-08T06:13:12.456Z,455
2017-06-08T06:14:11.834Z,455
2017-06-08T06:15:12.119Z,455
2017-06-08T06:16:12.141Z,455
2017-06-08T06:17:11.813Z,455
2017-06-08T06:18:12.434Z,460
2017-06-08T06:19:12.109Z,450
2017-06-08T06:20:12.114Z,440
2017-06-08T06:21:12.420Z,435
2017-06-08T06:22:11.796Z,430
2017-06-08T06:23:12.113Z,435
2017-06-08T06:24:11.137Z,430
2017-06-08T06:25:12.404Z,425
2017-06-08T06:26:11.781Z,420
2017-06-08T06:27:12.074Z,420
2017-06-08T06:28:11.917Z,410
2017-06-08T06:29:11.790Z,405
2017-06-08T06:30:11.428Z,400
2017-06-08T06:31:11.432Z,395
2017-06-08T06:32:12.058Z,390
2017-06-08T06:33:12.396Z,390
2017-06-08T06:34:12.402Z,385
2017-06-08T06:35:11.759Z,390
2017-06-08T06:36:12.067Z,410
2017-06-08T06:37:12.424Z,435
2017-06-08T06:38:11.092Z,500
2017-06-08T06:39:11.726Z,575
2017-06-08T06:40:12.065Z,610
2017-06-08T06:41:12.039Z,635
2017-06-08T06:42:11.719Z,695
2017-06-08T06:43:11.719Z,735
2017-06-08T06:44:12.182Z,735
2017-06-08T06:45:11.710Z,780
2017-06-08T06:46:12.045Z,830
2017-06-08T06:47:12.363Z,845
2017-06-08T06:48:12.025Z,820
2017-06-08T06:49:12.017Z,750
2017-06-08T06:50:12.347Z,745
2017-06-08T06:51:12.369Z,775
2017-06-08T06:52:12.027Z,775
2017-06-08T06:53:11.704Z,770
2017-06-08T06:54:11.694Z,745
2017-06-08T06:55:12.190Z,715
2017-06-08T06:56:11.054Z,690
2017-06-08T06:57:12.062Z,650
2017-06-08T06:58:12.053Z,580
2017-06-08T06:59:11.374Z,555
2017-06-08T07:00:12.056Z,555
2017-06-08T07:01:12.038Z,595
2017-06-08T07:02:12.386Z,585
2017-06-08T07:03:11.725Z,575
2017-06-08T07:04:12.348Z,570
2017-06-08T07:05:12.031Z,570
2017-06-08T07:06:12.192Z,590
2017-06-08T07:07:12.355Z,615
2017-06-08T07:08:12.048Z,625
2017-06-08T07:09:11.722Z,640
2017-06-08T07:10:12.397Z,640
2017-06-08T07:11:12.378Z,645
2017-06-08T07:12:12.051Z,665
2017-06-08T07:13:12.080Z,700
2017-06-08T07:14:12.064Z,720
2017-06-08T07:15:11.522Z,690
2017-06-08T07:16:11.751Z,675
2017-06-08T07:17:11.739Z,715
2017-06-08T07:18:12.155Z,690
2017-06-08T07:19:12.074Z,640
2017-06-08T07:20:11.426Z,635
2017-06-08T07:21:11.748Z,580
2017-06-08T07:22:12.098Z,480
2017-06-08T07:23:12.302Z,535
2017-06-08T07:24:12.082Z,550
2017-06-08T07:25:12.090Z,565
2017-06-08T07:26:11.813Z,520
2017-06-08T07:27:11.781Z,510
2017-06-08T07:28:11.775Z,490
2017-06-08T07:29:12.120Z,530
2017-06-08T07:30:11.805Z,600
2017-06-08T07:31:12.128Z,585
2017-06-08T07:32:11.145Z,570
2017-06-08T07:33:11.476Z,505
2017-06-08T07:34:12.131Z,520
2017-06-08T07:35:11.809Z,545
2017-06-08T07:36:12.131Z,545
2017-06-08T07:37:12.153Z,560
2017-06-08T07:38:11.837Z,565
2017-06-08T07:39:12.295Z,525
2017-06-08T07:40:11.842Z,470
2017-06-08T07:41:11.823Z,590
2017-06-08T07:42:11.527Z,600
2017-06-08T07:43:11.508Z,585
2017-06-08T07:44:12.483Z,590
2017-06-08T07:45:12.184Z,600
2017-06-08T07:46:12.205Z,600
2017-06-08T07:47:11.531Z,605
2017-06-08T07:48:12.496Z,630
2017-06-08T07:49:11.558Z,585
2017-06-08T07:50:12.029Z,430
2017-06-08T07:51:12.196Z,310
2017-06-08T07:52:12.215Z,285
2017-06-08T07:53:11.897Z,245
2017-06-08T07:54:12.205Z,340
2017-06-08T07:55:12.532Z,325
2017-06-08T07:56:11.892Z,325
2017-06-08T07:57:11.594Z,330
2017-06-08T07:58:12.268Z,355
2017-06-08T07:59:12.226Z,375
2017-06-08T08:00:12.568Z,345
2017-06-08T08:01:12.409Z,345
2017-06-08T08:02:12.243Z,360
2017-06-08T08:03:11.927Z,335
2017-06-08T08:04:12.577Z,320
2017-06-08T08:05:12.585Z,325
2017-06-08T08:06:12.297Z,355
2017-06-08T08:07:11.984Z,380
2017-06-08T08:08:11.624Z,340
2017-06-08T08:09:11.959Z,285
2017-06-08T08:10:11.967Z,265
2017-06-08T08:11:11.632Z,305
2017-06-08T08:12:12.279Z,310
2017-06-08T08:13:11.639Z,320
2017-06-08T08:14:11.959Z,335
2017-06-08T08:15:11.962Z,325
2017-06-08T08:16:12.642Z,300
2017-06-08T08:17:12.313Z,330
2017-06-08T08:18:11.996Z,350
2017-06-08T08:19:11.967Z,375
2017-06-08T08:20:12.296Z,400
2017-06-08T08:21:12.631Z,390
2017-06-08T08:22:12.293Z,370
2017-06-08T08:23:12.791Z,395
2017-06-08T08:24:12.352Z,440
2017-06-08T08:25:12.311Z,460
2017-06-08T08:26:12.311Z,430
2017-06-08T08:27:12.299Z,390
2017-06-08T08:28:11.976Z,365
2017-06-08T08:29:12.319Z,410
2017-06-08T08:30:12.310Z,420
2017-06-08T08:31:12.321Z,395
2017-06-08T08:32:12.295Z,385
2017-06-08T08:33:11.661Z,370
2017-06-08T08:34:11.521Z,380
2017-06-08T08:35:12.304Z,395
2017-06-08T08:36:12.000Z,385
2017-06-08T08:37:11.999Z,400
2017-06-08T08:38:12.299Z,380
2017-06-08T08:39:12.003Z,380
2017-06-08T08:40:12.634Z,360
2017-06-08T08:41:11.990Z,355
2017-06-08T08:42:11.996Z,365
2017-06-08T08:43:12.325Z,380
2017-06-08T08:44:12.015Z,380
2017-06-08T08:45:12.463Z,340
2017-06-08T08:46:11.658Z,365
2017-06-08T08:47:12.311Z,365
2017-06-08T08:48:11.985Z,365
2017-06-08T08:49:11.990Z,365
2017-06-08T08:50:12.629Z,360
2017-06-08T08:51:12.635Z,345
2017-06-08T08:52:12.659Z,315
2017-06-08T08:53:11.992Z,315
2017-06-08T08:54:11.990Z,310
2017-06-08T08:55:11.975Z,300
2017-06-08T08:56:12.453Z,300
2017-06-08T08:57:12.332Z,300
2017-06-08T08:58:12.309Z,310
2017-06-08T08:59:12.183Z,330
2017-06-08T09:00:12.619Z,320
2017-06-08T09:01:12.298Z,295
2017-06-08T09:02:11.972Z,290
2017-06-08T09:03:11.661Z,305
2017-06-08T09:04:11.971Z,315
2017-06-08T09:05:12.291Z,285
2017-06-08T09:06:12.308Z,310
2017-06-08T09:07:12.295Z,325
2017-06-08T09:08:12.616Z,330
2017-06-08T09:09:12.604Z,345
2017-06-08T09:10:12.647Z,375
2017-06-08T09:11:12.607Z,405
2017-06-08T09:12:12.302Z,390
2017-06-08T09:13:12.436Z,395
2017-06-08T09:14:12.011Z,405
2017-06-08T09:15:12.328Z,410
2017-06-08T09:16:12.320Z,430
2017-06-08T09:17:11.637Z,440
2017-06-08T09:18:12.306Z,450
2017-06-08T09:19:12.282Z,455
2017-06-08T09:20:11.986Z,465
2017-06-08T09:21:12.294Z,475
2017-06-08T09:22:12.634Z,485
2017-06-08T09:23:12.628Z,495
2017-06-08T09:24:12.495Z,500
2017-06-08T09:25:11.979Z,495
2017-06-08T09:26:11.956Z,500
2017-06-08T09:27:12.365Z,510
2017-06-08T09:28:12.288Z,515
2017-06-08T09:29:12.282Z,520
2017-06-08T09:30:12.603Z,525
2017-06-08T09:31:11.975Z,535
2017-06-08T09:32:12.603Z,540
2017-06-08T09:33:11.634Z,550
2017-06-08T09:34:12.289Z,550
2017-06-08T09:35:12.107Z,560
2017-06-08T09:36:12.274Z,570
2017-06-08T09:37:11.968Z,575
2017-06-08T09:38:11.642Z,580
2017-06-08T09:39:12.608Z,585
2017-06-08T09:40:11.666Z,590
2017-06-08T09:41:11.954Z,590
2017-06-08T09:42:12.282Z,590
2017-06-08T09:43:12.298Z,590
2017-06-08T09:44:11.949Z,590
2017-06-08T09:45:12.315Z,595
2017-06-08T09:46:11.781Z,595
2017-06-08T09:47:11.947Z,600
2017-06-08T09:48:11.957Z,600
2017-06-08T09:49:11.975Z,610
2017-06-08T09:50:12.272Z,625
2017-06-08T09:51:12.298Z,640
2017-06-08T09:52:12.634Z,655
2017-06-08T09:53:12.273Z,675
2017-06-08T09:54:12.606Z,690
2017-06-08T09:55:11.965Z,695
2017-06-08T09:56:11.635Z,705
2017-06-08T09:57:12.112Z,715
2017-06-08T09:58:12.305Z,720
2017-06-08T09:59:11.949Z,720
2017-06-08T10:00:11.956Z,710
2017-06-08T10:01:12.277Z,695
2017-06-08T10:02:12.298Z,670
2017-06-08T10:03:11.954Z,665
2017-06-08T10:04:12.003Z,645
2017-06-08T10:05:12.283Z,630
2017-06-08T10:06:12.294Z,625
2017-06-08T10:07:11.642Z,615
2017-06-08T10:08:12.122Z,595
2017-06-08T10:09:11.973Z,585
2017-06-08T10:10:11.964Z,565
2017-06-08T10:11:11.627Z,545
2017-06-08T10:12:11.972Z,530
2017-06-08T10:13:12.599Z,525
2017-06-08T10:14:12.281Z,510
2017-06-08T10:15:12.638Z,505
2017-06-08T10:16:12.295Z,500
2017-06-08T10:17:12.291Z,495
2017-06-08T10:18:12.291Z,495
2017-06-08T10:19:12.749Z,495
2017-06-08T10:20:11.984Z,495
2017-06-08T10:21:12.004Z,485
2017-06-08T10:22:12.040Z,480
2017-06-08T10:23:11.310Z,475
2017-06-08T10:24:12.281Z,475
2017-06-08T10:25:12.282Z,480
2017-06-08T10:26:11.316Z,485
2017-06-08T10:27:12.286Z,485
2017-06-08T10:28:11.653Z,485
2017-06-08T10:29:12.292Z,495
2017-06-08T10:30:12.128Z,490
2017-06-08T10:31:12.286Z,485
2017-06-08T10:32:12.284Z,480
2017-06-08T10:33:11.959Z,475
2017-06-08T10:34:11.979Z,470
2017-06-08T10:35:11.962Z,460
2017-06-08T10:36:12.289Z,445
2017-06-08T10:37:12.305Z,430
2017-06-08T10:38:12.283Z,420
2017-06-08T10:39:12.282Z,405
2017-06-08T10:40:11.664Z,385
2017-06-08T10:41:12.449Z,370
2017-06-08T10:42:12.299Z,355
2017-06-08T10:43:11.978Z,340
2017-06-08T10:44:15.640Z,325
2017-06-08T10:45:11.962Z,305
2017-06-08T10:46:12.275Z,295
2017-06-08T10:47:12.315Z,285
2017-06-08T10:48:12.296Z,275
2017-06-08T10:49:12.600Z,265
2017-06-08T10:50:12.604Z,260
2017-06-08T10:51:11.637Z,250
2017-06-08T10:52:12.422Z,245
2017-06-08T10:53:11.970Z,250
2017-06-08T10:54:11.963Z,265
2017-06-08T10:55:12.284Z,290
2017-06-08T10:56:12.282Z,300
2017-06-08T10:57:11.961Z,290
2017-06-08T10:58:11.651Z,260
2017-06-08T10:59:11.957Z,230
2017-06-08T11:00:12.599Z,210
2017-06-08T11:01:12.277Z,205
2017-06-08T11:02:12.619Z,195
2017-06-08T11:03:12.750Z,185
2017-06-08T11:04:11.636Z,190
2017-06-08T11:05:11.960Z,190
2017-06-08T11:06:12.300Z,185
2017-06-08T11:07:12.307Z,185
2017-06-08T11:08:11.662Z,185
2017-06-08T11:09:11.978Z,180
2017-06-08T11:10:12.294Z,185
2017-06-08T11:11:11.958Z,180
2017-06-08T11:12:12.293Z,180
2017-06-08T11:13:11.983Z,180
2017-06-08T11:14:12.106Z,185
2017-06-08T11:15:12.295Z,190
2017-06-08T11:16:12.301Z,195
2017-06-08T11:17:12.597Z,200
2017-06-08T11:18:12.285Z,205
2017-06-08T11:19:12.612Z,210
2017-06-08T11:20:12.277Z,215
2017-06-08T11:21:12.639Z,220
2017-06-08T11:22:12.309Z,235
2017-06-08T11:23:11.968Z,255
2017-06-08T11:24:12.313Z,285
2017-06-08T11:25:11.792Z,295
2017-06-08T11:26:11.951Z,300
2017-06-08T11:27:12.280Z,305
2017-06-08T11:28:12.286Z,315
2017-06-08T11:29:12.289Z,335
2017-06-08T11:30:11.979Z,345
2017-06-08T11:31:11.962Z,365
2017-06-08T11:32:11.958Z,375
2017-06-08T11:33:11.994Z,395
2017-06-08T11:34:12.309Z,405
2017-06-08T11:35:11.957Z,415
2017-06-08T11:36:12.815Z,430
2017-06-08T11:37:12.309Z,445
2017-06-08T11:38:12.278Z,460
2017-06-08T11:39:12.285Z,470
2017-06-08T11:40:12.272Z,475
2017-06-08T11:41:11.637Z,475
2017-06-08T11:42:12.268Z,465
2017-06-08T11:43:12.303Z,465
2017-06-08T11:44:12.290Z,450
2017-06-08T11:45:11.634Z,440
2017-06-08T11:46:11.956Z,455
2017-06-08T11:47:12.299Z,470
2017-06-08T11:48:11.954Z,485
2017-06-08T11:49:11.953Z,500
2017-06-08T11:50:12.606Z,500
2017-06-08T11:51:11.684Z,505
2017-06-08T11:52:12.295Z,515
2017-06-08T11:53:12.279Z,505
2017-06-08T11:54:12.291Z,485
2017-06-08T11:55:12.293Z,455
2017-06-08T11:56:12.311Z,425
2017-06-08T11:57:12.615Z,395
2017-06-08T11:58:12.758Z,360
2017-06-08T11:59:12.293Z,325
2017-06-08T12:00:12.300Z,305
2017-06-08T12:01:11.980Z,280
2017-06-08T12:02:11.326Z,255
2017-06-08T12:03:11.979Z,240
2017-06-08T12:04:11.991Z,230
2017-06-08T12:05:12.626Z,235
2017-06-08T12:06:12.315Z,235
2017-06-08T12:07:12.616Z,240
2017-06-08T12:08:11.992Z,240
2017-06-08T12:09:12.126Z,240
2017-06-08T12:10:12.614Z,240
2017-06-08T12:11:12.325Z,240
2017-06-08T12:12:12.334Z,235
2017-06-08T12:13:12.014Z,225
2017-06-08T12:14:12.308Z,220
2017-06-08T12:15:12.341Z,215
2017-06-08T12:16:12.164Z,210
2017-06-08T12:17:12.327Z,210
2017-06-08T12:18:12.347Z,205
2017-06-08T12:19:12.314Z,200
2017-06-08T12:20:12.474Z,195
2017-06-08T12:21:12.307Z,190
2017-06-08T12:22:12.298Z,190
2017-06-08T12:23:12.028Z,190
2017-06-08T12:24:11.656Z,185
2017-06-08T12:25:12.306Z,185
2017-06-08T12:26:12.324Z,185
2017-06-08T12:27:11.979Z,185
2017-06-08T12:28:12.303Z,185
2017-06-08T12:29:11.661Z,185
2017-06-08T12:30:12.049Z,185
2017-06-08T12:31:12.808Z,185
2017-06-08T12:32:12.350Z,185
2017-06-08T12:33:11.342Z,185
2017-06-08T12:34:12.004Z,180
2017-06-08T12:35:11.665Z,175
2017-06-08T12:36:12.014Z,170
2017-06-08T12:37:12.023Z,160
2017-06-08T12:38:11.990Z,165
2017-06-08T12:39:11.669Z,165
2017-06-08T12:40:12.005Z,160
2017-06-08T12:41:12.310Z,155
2017-06-08T12:42:11.827Z,155
2017-06-08T12:43:12.318Z,150
2017-06-08T12:44:12.014Z,150
2017-06-08T12:45:12.317Z,150
2017-06-08T12:46:12.316Z,150
2017-06-08T12:47:12.308Z,145
2017-06-08T12:48:12.326Z,145
2017-06-08T12:49:12.010Z,145
2017-06-08T12:50:12.307Z,145
2017-06-08T12:51:12.332Z,145
2017-06-08T12:52:12.313Z,145
2017-06-08T12:53:12.137Z,145
2017-06-08T12:54:12.311Z,145
2017-06-08T12:55:12.325Z,145
2017-06-08T12:56:11.695Z,145
2017-06-08T12:57:12.331Z,145
2017-06-08T12:58:11.670Z,145
2017-06-08T12:59:12.007Z,145
2017-06-08T13:00:12.350Z,145
2017-06-08T13:01:12.647Z,145
2017-06-08T13:02:11.987Z,145
2017-06-08T13:03:11.990Z,140
2017-06-08T13:04:12.133Z,140
2017-06-08T13:05:12.005Z,140
2017-06-08T13:06:11.994Z,140
2017-06-08T13:07:12.349Z,140
2017-06-08T13:08:12.306Z,140
2017-06-08T13:09:12.329Z,140
2017-06-08T13:10:12.038Z,140
2017-06-08T13:11:12.317Z,140
2017-06-08T13:12:12.658Z,135
2017-06-08T13:13:11.687Z,135
2017-06-08T13:14:12.323Z,135
2017-06-08T13:15:12.652Z,135
2017-06-08T13:16:12.673Z,135
2017-06-08T13:17:12.631Z,135
2017-06-08T13:18:12.312Z,135
2017-06-08T13:19:12.649Z,135
2017-06-08T13:20:11.812Z,135
2017-06-08T13:21:12.003Z,135
2017-06-08T13:22:12.007Z,135
2017-06-08T13:23:11.663Z,135
2017-06-08T13:24:11.980Z,140
2017-06-08T13:25:12.346Z,140
2017-06-08T13:26:12.319Z,140
2017-06-08T13:27:14.356Z,140
2017-06-08T13:28:12.628Z,140
2017-06-08T13:29:12.658Z,140
2017-06-08T13:30:11.988Z,140
2017-06-08T13:31:12.510Z,140
2017-06-08T13:32:11.982Z,140
2017-06-08T13:33:12.300Z,140
2017-06-08T13:34:11.661Z,135
2017-06-08T13:35:11.974Z,140
2017-06-08T13:36:12.328Z,140
2017-06-08T13:37:11.689Z,140
2017-06-08T13:38:11.976Z,135
2017-06-08T13:39:11.984Z,135
2017-06-08T13:40:11.676Z,135
2017-06-08T13:41:12.021Z,135
2017-06-08T13:42:11.861Z,135
2017-06-08T13:43:12.315Z,135
2017-06-08T13:44:11.994Z,135
2017-06-08T13:45:11.992Z,135
2017-06-08T13:46:12.665Z,135
2017-06-08T13:47:12.653Z,135
2017-06-08T13:48:12.640Z,135
2017-06-08T13:49:12.635Z,135
2017-06-08T13:50:11.993Z,135
2017-06-08T13:51:11.656Z,135
2017-06-08T13:52:12.313Z,135
2017-06-08T13:53:12.470Z,135
2017-06-08T13:54:12.615Z,135
2017-06-08T13:55:12.617Z,135
2017-06-08T13:56:12.061Z,135
2017-06-08T13:57:12.324Z,135
2017-06-08T13:58:12.289Z,135
2017-06-08T13:59:12.610Z,135
2017-06-08T14:00:12.320Z,135
2017-06-08T14:01:11.667Z,135